createdAt,value
2023-01-21T00:01:11.368Z,66.91
2023-01-21T00:03:44.630Z,66.52
2023-01-21T00:06:17.903Z,66.47
2023-01-21T00:08:50.935Z,66.50
2023-01-21T00:11:23.465Z,66.37
2023-01-21T00:13:56.644Z,66.12
2023-01-21T00:16:28.889Z,65.65
2023-01-21T00:19:01.644Z,65.12
2023-01-21T00:21:34.696Z,65.42
2023-01-21T00:24:07.407Z,65.16
2023-01-21T00:26:40.228Z,65.24
2023-01-21T00:29:13.348Z,64.87
2023-01-21T00:31:46.388Z,64.72
2023-01-21T00:34:18.638Z,64.72
2023-01-21T00:36:51.361Z,64.74
2023-01-21T00:39:23.619Z,64.24
2023-01-21T00:41:55.784Z,63.82
2023-01-21T00:44:28.249Z,64.46
2023-01-21T00:47:00.490Z,64.67
2023-01-21T00:49:33.057Z,64.43
2023-01-21T00:52:05.189Z,64.17
2023-01-21T00:54:37.822Z,64.16
2023-01-21T00:57:10.062Z,63.92
2023-01-21T00:59:42.941Z,64.08
2023-01-21T01:02:15.866Z,63.72
2023-01-21T01:04:48.870Z,63.55
2023-01-21T01:07:22.239Z,63.55
2023-01-21T01:09:55.273Z,63.32
2023-01-21T01:12:29.785Z,62.97
2023-01-21T01:15:01.247Z,63.23
2023-01-21T01:17:33.443Z,64.04
2023-01-21T01:20:06.413Z,63.16
2023-01-21T01:22:41.911Z,63.11
2023-01-21T01:25:15.362Z,62.93
2023-01-21T01:27:47.923Z,62.70
2023-01-21T01:30:20.793Z,63.10
2023-01-21T01:32:52.995Z,62.82
2023-01-21T01:35:25.517Z,62.89
2023-01-21T01:38:00.346Z,62.50
2023-01-21T01:40:37.097Z,62.77
2023-01-21T01:43:29.102Z,62.51
2023-01-21T01:46:02.475Z,62.21
2023-01-21T01:48:35.664Z,62.19
2023-01-21T01:51:09.061Z,62.53
2023-01-21T01:53:44.061Z,62.79
2023-01-21T01:56:17.599Z,62.04
2023-01-21T01:58:50.807Z,61.74
2023-01-21T02:01:24.417Z,61.86
2023-01-21T02:04:01.807Z,61.65
2023-01-21T02:06:35.631Z,61.14
2023-01-21T02:09:08.635Z,60.80
2023-01-21T02:11:40.995Z,60.84
2023-01-21T02:14:14.046Z,61.09
2023-01-21T02:17:07.600Z,61.50
2023-01-21T02:20:06.112Z,61.25
2023-01-21T02:22:47.610Z,61.18
2023-01-21T02:25:32.220Z,60.55
2023-01-21T02:28:13.319Z,60.43
2023-01-21T02:31:00.346Z,60.48
2023-01-21T02:33:41.452Z,60.41
2023-01-21T02:36:19.425Z,60.44
2023-01-21T02:39:14.419Z,60.51
2023-01-21T02:42:10.207Z,60.04
2023-01-21T02:44:55.258Z,59.85
2023-01-21T02:47:36.324Z,60.19
2023-01-21T02:50:23.603Z,60.46
2023-01-21T02:53:00.706Z,60.63
2023-01-21T02:55:40.390Z,60.37
2023-01-21T02:58:16.161Z,60.33
2023-01-21T03:01:07.164Z,59.86
2023-01-21T03:04:11.321Z,60.12
2023-01-21T03:07:04.503Z,59.85
2023-01-21T03:09:37.436Z,59.74
2023-01-21T03:12:12.475Z,59.50
2023-01-21T03:15:11.363Z,59.51
2023-01-21T03:18:12.309Z,59.25
2023-01-21T03:20:48.050Z,59.20
2023-01-21T03:23:27.452Z,59.16
2023-01-21T03:26:02.449Z,59.03
2023-01-21T03:28:39.306Z,59.11
2023-01-21T03:31:21.381Z,59.22
2023-01-21T03:33:56.403Z,59.22
2023-01-21T03:36:55.838Z,59.36
2023-01-21T03:39:48.933Z,59.47
2023-01-21T03:42:23.231Z,59.34
2023-01-21T03:44:56.272Z,59.37
2023-01-21T03:47:32.048Z,59.24
2023-01-21T03:50:19.599Z,59.26
2023-01-21T03:52:52.283Z,59.07
2023-01-21T03:55:24.714Z,59.35
2023-01-21T03:57:57.197Z,58.92
2023-01-21T04:00:30.463Z,58.91
2023-01-21T04:03:02.712Z,58.64
2023-01-21T04:05:36.205Z,58.14
2023-01-21T04:08:11.266Z,57.82
2023-01-21T04:10:44.142Z,57.89
2023-01-21T04:13:16.497Z,58.50
2023-01-21T04:15:48.971Z,58.92
2023-01-21T04:18:23.397Z,59.09
2023-01-21T04:21:01.205Z,59.22
2023-01-21T04:23:33.297Z,59.14
2023-01-21T04:26:05.998Z,59.17
2023-01-21T04:28:38.961Z,59.18
2023-01-21T04:31:11.909Z,59.09
2023-01-21T04:33:45.135Z,59.28
2023-01-21T04:36:17.627Z,59.14
2023-01-21T04:38:49.783Z,59.22
2023-01-21T04:41:24.500Z,59.17
2023-01-21T04:43:56.093Z,59.19
2023-01-21T04:46:28.488Z,59.17
2023-01-21T04:49:01.964Z,59.24
2023-01-21T04:51:34.534Z,59.36
2023-01-21T04:54:07.401Z,59.18
2023-01-21T04:56:39.932Z,58.74
2023-01-21T04:59:13.160Z,58.76
2023-01-21T05:01:45.520Z,58.52
2023-01-21T05:04:18.013Z,58.59
2023-01-21T05:06:50.292Z,58.44
2023-01-21T05:09:23.542Z,58.30
2023-01-21T05:11:57.461Z,58.54
2023-01-21T05:14:32.188Z,58.54
2023-01-21T05:17:05.211Z,58.46
2023-01-21T05:19:37.534Z,58.44
2023-01-21T05:22:12.770Z,58.70
2023-01-21T05:24:45.363Z,58.75
2023-01-21T05:27:17.546Z,58.89
2023-01-21T05:29:49.873Z,58.85
2023-01-21T05:32:22.470Z,58.92
2023-01-21T05:34:54.927Z,59.08
2023-01-21T05:37:30.265Z,59.08
2023-01-21T05:40:02.516Z,58.87
2023-01-21T05:42:35.060Z,58.66
2023-01-21T05:45:08.122Z,58.71
2023-01-21T05:47:40.453Z,58.83
2023-01-21T05:50:13.908Z,58.73
2023-01-21T05:52:46.383Z,58.53
2023-01-21T05:55:18.887Z,58.67
2023-01-21T05:57:51.674Z,58.54
2023-01-21T06:00:24.115Z,58.57
2023-01-21T06:02:56.599Z,58.78
2023-01-21T06:05:29.133Z,58.77
2023-01-21T06:08:02.493Z,58.67
2023-01-21T06:10:35.187Z,58.53
2023-01-21T06:13:07.323Z,58.68
2023-01-21T06:15:39.873Z,58.71
2023-01-21T06:18:12.531Z,58.57
2023-01-21T06:20:46.463Z,57.99
2023-01-21T06:23:18.904Z,58.32
2023-01-21T06:25:51.181Z,58.48
2023-01-21T06:28:23.893Z,58.62
2023-01-21T06:30:56.254Z,58.63
2023-01-21T06:33:31.398Z,58.26
2023-01-21T06:36:03.699Z,57.75
2023-01-21T06:38:38.008Z,57.82
2023-01-21T06:41:11.575Z,57.88
2023-01-21T06:43:44.150Z,57.84
2023-01-21T06:46:16.792Z,57.74
2023-01-21T06:48:50.505Z,57.55
2023-01-21T06:51:22.305Z,57.31
2023-01-21T06:53:55.562Z,57.84
2023-01-21T06:56:27.695Z,56.96
2023-01-21T06:58:59.966Z,56.82
2023-01-21T07:01:32.893Z,56.61
2023-01-21T07:04:04.970Z,56.54
2023-01-21T07:06:38.077Z,56.36
2023-01-21T07:09:11.511Z,55.99
2023-01-21T07:11:44.298Z,56.17
2023-01-21T07:14:16.776Z,55.37
2023-01-21T07:16:48.864Z,55.41
2023-01-21T07:19:21.062Z,55.40
2023-01-21T07:21:54.157Z,55.82
2023-01-21T07:24:26.764Z,55.68
2023-01-21T07:26:59.236Z,55.58
2023-01-21T07:29:32.177Z,55.45
2023-01-21T07:32:04.833Z,55.73
2023-01-21T07:34:38.123Z,55.49
2023-01-21T07:37:11.609Z,55.17
2023-01-21T07:39:44.704Z,54.44
2023-01-21T07:42:17.163Z,54.41
2023-01-21T07:44:52.879Z,54.42
2023-01-21T07:47:25.717Z,54.54
2023-01-21T07:49:58.261Z,54.30
2023-01-21T07:52:30.913Z,54.25
2023-01-21T07:55:08.003Z,53.65
2023-01-21T07:57:41.345Z,53.49
2023-01-21T08:00:14.476Z,53.13
2023-01-21T08:02:49.005Z,53.44
2023-01-21T08:05:21.606Z,53.43
2023-01-21T08:07:54.016Z,53.41
2023-01-21T08:10:26.952Z,53.81
2023-01-21T08:13:01.855Z,53.13
2023-01-21T08:15:34.673Z,53.19
2023-01-21T08:18:07.999Z,52.60
2023-01-21T08:20:40.707Z,52.31
2023-01-21T08:23:15.305Z,52.63
2023-01-21T08:25:47.889Z,51.86
2023-01-21T08:28:21.806Z,51.62
2023-01-21T08:30:54.255Z,51.89
2023-01-21T08:33:26.566Z,51.56
2023-01-21T08:36:04.114Z,51.56
2023-01-21T08:38:38.745Z,51.76
2023-01-21T08:41:11.168Z,51.71
2023-01-21T08:43:43.563Z,51.44
2023-01-21T08:46:16.540Z,50.86
2023-01-21T08:48:48.976Z,51.36
2023-01-21T08:51:21.406Z,51.31
2023-01-21T08:53:56.225Z,51.17
2023-01-21T08:56:29.158Z,51.93
2023-01-21T08:59:03.065Z,50.60
2023-01-21T09:01:37.247Z,50.38
2023-01-21T09:04:10.321Z,50.13
2023-01-21T09:06:42.973Z,50.56
2023-01-21T09:09:15.079Z,50.52
2023-01-21T09:11:47.774Z,50.38
2023-01-21T09:14:22.004Z,49.91
2023-01-21T09:16:56.335Z,50.16
2023-01-21T09:19:29.454Z,49.86
2023-01-21T09:22:01.680Z,49.60
2023-01-21T09:24:35.209Z,49.43
2023-01-21T09:27:12.373Z,49.40
2023-01-21T09:29:45.982Z,49.35
2023-01-21T09:32:19.605Z,49.58
2023-01-21T09:34:52.640Z,49.42
2023-01-21T09:37:25.325Z,49.70
2023-01-21T09:39:57.746Z,49.56
2023-01-21T09:42:35.864Z,49.40
2023-01-21T09:45:09.782Z,49.05
2023-01-21T09:47:44.884Z,49.16
2023-01-21T09:50:21.352Z,49.51
2023-01-21T09:52:56.873Z,49.77
2023-01-21T09:55:37.700Z,49.51
2023-01-21T09:58:31.526Z,48.94
2023-01-21T10:01:22.445Z,49.36
2023-01-21T10:04:03.602Z,48.71
2023-01-21T10:06:44.213Z,48.95
2023-01-21T10:09:22.618Z,48.63
2023-01-21T10:12:03.434Z,48.39
2023-01-21T10:15:07.991Z,48.32
2023-01-21T10:17:58.482Z,47.84
2023-01-21T10:20:46.920Z,48.33
2023-01-21T10:23:28.163Z,48.15
2023-01-21T10:26:03.385Z,48.42
2023-01-21T10:28:38.007Z,48.07
2023-01-21T10:31:22.505Z,48.40
2023-01-21T10:33:55.255Z,48.47
2023-01-21T10:36:48.013Z,49.22
2023-01-21T10:39:30.200Z,48.16
2023-01-21T10:42:21.972Z,48.31
2023-01-21T10:45:18.545Z,47.93
2023-01-21T10:48:05.601Z,48.37
2023-01-21T10:50:54.833Z,46.91
2023-01-21T10:53:48.645Z,46.73
2023-01-21T10:56:29.913Z,46.76
2023-01-21T10:59:08.519Z,47.47
2023-01-21T11:01:50.020Z,47.97
2023-01-21T11:04:25.262Z,47.45
2023-01-21T11:07:06.847Z,46.79
2023-01-21T11:09:45.432Z,47.24
2023-01-21T11:12:24.356Z,46.68
2023-01-21T11:15:05.249Z,47.13
2023-01-21T11:17:41.698Z,46.73
2023-01-21T11:20:36.910Z,47.11
2023-01-21T11:23:28.536Z,47.30
2023-01-21T11:26:07.703Z,47.87
2023-01-21T11:28:40.838Z,48.60
2023-01-21T11:31:16.234Z,49.26
2023-01-21T11:33:48.877Z,49.24
2023-01-21T11:36:22.677Z,49.47
2023-01-21T11:39:04.280Z,49.72
2023-01-21T11:41:37.085Z,49.98
2023-01-21T11:44:20.415Z,49.24
2023-01-21T11:46:52.656Z,49.78
2023-01-21T11:49:34.883Z,50.70
2023-01-21T11:52:19.495Z,50.90
2023-01-21T11:54:54.410Z,50.79
2023-01-21T11:57:29.293Z,51.05
2023-01-21T12:00:07.742Z,50.88
2023-01-21T12:02:46.276Z,51.08
2023-01-21T12:05:35.890Z,51.19
2023-01-21T12:08:11.103Z,49.96
2023-01-21T12:10:48.079Z,50.32
2023-01-21T12:13:23.492Z,49.94
2023-01-21T12:16:17.988Z,50.13
2023-01-21T12:19:18.907Z,50.51
2023-01-21T12:22:00.581Z,50.01
2023-01-21T12:24:44.953Z,50.75
2023-01-21T12:27:39.632Z,51.03
2023-01-21T12:30:30.311Z,51.33
2023-01-21T12:33:14.855Z,51.59
2023-01-21T12:35:56.262Z,52.40
2023-01-21T12:38:34.103Z,51.67
2023-01-21T12:41:13.710Z,51.50
2023-01-21T12:43:58.136Z,52.18
2023-01-21T12:46:35.318Z,52.37
2023-01-21T12:49:16.461Z,52.12
2023-01-21T12:51:55.353Z,52.29
2023-01-21T12:54:51.600Z,51.48
2023-01-21T12:57:30.329Z,51.83
2023-01-21T13:00:08.468Z,51.94
2023-01-21T13:02:46.247Z,52.52
2023-01-21T13:05:30.923Z,52.27
2023-01-21T13:08:34.022Z,52.71
2023-01-21T13:11:24.306Z,52.74
2023-01-21T13:13:59.231Z,52.98
2023-01-21T13:16:34.973Z,53.05
2023-01-21T13:19:07.969Z,53.12
2023-01-21T13:21:43.496Z,52.68
2023-01-21T13:24:21.969Z,52.79
2023-01-21T13:27:09.209Z,53.06
2023-01-21T13:29:59.082Z,52.95
2023-01-21T13:32:54.432Z,52.75
2023-01-21T13:36:00.677Z,53.44
2023-01-21T13:38:48.316Z,53.30
2023-01-21T13:41:33.822Z,53.11
2023-01-21T13:48:07.999Z,53.84
2023-01-21T13:50:49.096Z,52.50
2023-01-21T13:53:43.114Z,52.14
2023-01-21T13:56:33.565Z,52.40
2023-01-21T13:59:12.551Z,52.11
2023-01-21T14:01:48.308Z,52.31
2023-01-21T14:04:35.752Z,52.23
2023-01-21T14:07:30.917Z,52.70
2023-01-21T14:10:15.584Z,52.53
2023-01-21T14:12:56.887Z,52.48
2023-01-21T14:15:47.127Z,52.00
2023-01-21T14:18:41.738Z,51.98
2023-01-21T14:21:31.484Z,51.49
2023-01-21T14:24:25.262Z,52.07
2023-01-21T14:27:15.098Z,52.55
2023-01-21T14:29:54.907Z,52.84
2023-01-21T14:32:42.545Z,52.98
2023-01-21T14:35:24.714Z,52.37
2023-01-21T14:38:33.739Z,51.84
2023-01-21T14:41:08.983Z,51.74
2023-01-21T14:43:45.193Z,51.95
2023-01-21T14:46:37.808Z,52.25
2023-01-21T14:49:12.372Z,52.62
2023-01-21T14:51:48.137Z,53.14
2023-01-21T14:54:23.971Z,52.96
2023-01-21T14:57:17.338Z,52.74
2023-01-21T14:59:43.740Z,52.39
2023-01-21T15:02:37.508Z,52.52
2023-01-21T15:05:28.136Z,53.07
2023-01-21T15:08:10.413Z,52.77
2023-01-21T15:10:44.988Z,52.57
2023-01-21T15:13:37.568Z,52.44
2023-01-21T15:16:40.434Z,52.77
2023-01-21T15:19:16.579Z,53.12
2023-01-21T15:22:26.985Z,53.06
2023-01-21T15:25:20.786Z,52.72
2023-01-21T15:28:16.826Z,52.68
2023-01-21T15:31:04.475Z,53.03
2023-01-21T15:33:44.564Z,52.91
2023-01-21T15:36:30.157Z,52.70
2023-01-21T15:39:12.989Z,52.76
2023-01-21T15:41:57.010Z,53.15
2023-01-21T15:44:38.561Z,53.58
2023-01-21T15:47:23.026Z,53.26
2023-01-21T15:50:04.466Z,53.57
2023-01-21T15:52:45.009Z,53.87
2023-01-21T15:55:48.561Z,53.71
2023-01-21T15:58:35.794Z,54.06
2023-01-21T16:01:27.074Z,54.11
2023-01-21T16:04:12.080Z,54.22
2023-01-21T16:07:02.846Z,54.23
2023-01-21T16:09:41.305Z,54.45
2023-01-21T16:12:41.065Z,54.51
2023-01-21T16:15:35.344Z,54.61
2023-01-21T16:18:13.475Z,54.41
2023-01-21T16:20:49.160Z,54.71
2023-01-21T16:23:24.511Z,54.74
2023-01-21T16:26:05.872Z,54.86
2023-01-21T16:28:45.395Z,54.81
2023-01-21T16:31:19.979Z,54.93
2023-01-21T16:33:53.853Z,54.31
2023-01-21T16:36:25.560Z,53.99
2023-01-21T16:38:57.525Z,53.76
2023-01-21T16:41:29.983Z,54.11
2023-01-21T16:44:05.708Z,54.40
2023-01-21T16:46:40.744Z,54.84
2023-01-21T16:49:17.804Z,55.11
2023-01-21T16:51:53.023Z,54.97
2023-01-21T16:54:31.364Z,55.45
2023-01-21T16:57:06.421Z,55.02
2023-01-21T16:59:45.391Z,55.37
2023-01-21T17:02:21.027Z,55.05
2023-01-21T17:05:03.980Z,55.47
2023-01-21T17:07:42.171Z,55.57
2023-01-21T17:10:23.510Z,55.63
2023-01-21T17:13:11.628Z,55.64
2023-01-21T17:15:46.567Z,55.51
2023-01-21T17:18:24.964Z,55.78
2023-01-21T17:21:15.377Z,55.89
2023-01-21T17:23:59.343Z,56.10
2023-01-21T17:26:41.966Z,56.40
2023-01-21T17:29:22.334Z,56.22
2023-01-21T17:32:06.480Z,56.45
2023-01-21T17:34:40.967Z,56.84
2023-01-21T17:37:46.053Z,56.49
2023-01-21T17:40:39.257Z,56.78
2023-01-21T17:43:14.983Z,56.51
2023-01-21T17:45:54.010Z,56.66
2023-01-21T17:48:32.313Z,56.99
2023-01-21T17:51:07.315Z,56.58
2023-01-21T17:53:46.378Z,57.16
2023-01-21T17:56:21.762Z,57.41
2023-01-21T17:58:55.843Z,57.14
2023-01-21T18:01:28.772Z,57.48
2023-01-21T18:04:02.692Z,57.55
2023-01-21T18:06:36.491Z,57.75
2023-01-21T18:09:16.399Z,57.71
2023-01-21T18:11:51.075Z,57.60
2023-01-21T18:14:27.283Z,57.11
2023-01-21T18:17:01.229Z,57.08
2023-01-21T18:19:41.823Z,57.46
2023-01-21T18:22:26.587Z,57.26
2023-01-21T18:24:58.131Z,57.21
2023-01-21T18:27:30.673Z,56.92
2023-01-21T18:30:17.429Z,56.79
2023-01-21T18:32:51.245Z,56.46
2023-01-21T18:35:24.301Z,56.72
2023-01-21T18:37:57.522Z,55.92
2023-01-21T18:40:29.861Z,55.75
2023-01-21T18:43:02.231Z,55.98
2023-01-21T18:45:34.656Z,55.90
2023-01-21T18:48:09.534Z,56.10
2023-01-21T18:50:41.892Z,56.13
2023-01-21T18:53:14.604Z,55.52
2023-01-21T18:55:50.166Z,55.29
2023-01-21T18:58:22.175Z,55.67
2023-01-21T19:00:55.211Z,55.56
2023-01-21T19:03:27.291Z,56.17
2023-01-21T19:06:00.498Z,56.26
2023-01-21T19:08:32.781Z,56.13
2023-01-21T19:11:05.113Z,56.00
2023-01-21T19:13:37.633Z,56.50
2023-01-21T19:16:19.197Z,56.07
2023-01-21T19:18:51.758Z,56.14
2023-01-21T19:21:25.387Z,56.41
2023-01-21T19:23:57.234Z,56.54
2023-01-21T19:26:31.982Z,56.04
2023-01-21T19:29:06.012Z,56.32
2023-01-21T19:31:38.227Z,56.36
2023-01-21T19:34:11.291Z,55.66
2023-01-21T19:36:43.919Z,55.49
2023-01-21T19:39:20.747Z,55.63
2023-01-21T19:42:07.269Z,55.70
2023-01-21T19:44:28.482Z,55.82
2023-01-21T19:47:02.605Z,55.77
2023-01-21T19:49:35.046Z,55.93
2023-01-21T19:52:08.016Z,55.58
2023-01-21T19:54:40.134Z,56.04
2023-01-21T19:57:16.839Z,56.00
2023-01-21T19:59:50.883Z,55.97
2023-01-21T20:02:23.314Z,56.15
2023-01-21T20:04:58.188Z,56.14
2023-01-21T20:07:37.126Z,55.89
2023-01-21T20:10:17.513Z,55.55
2023-01-21T20:12:52.465Z,55.88
2023-01-21T20:15:30.430Z,55.88
2023-01-21T20:18:05.344Z,55.66
2023-01-21T20:20:36.809Z,55.54
2023-01-21T20:23:13.129Z,55.42
2023-01-21T20:25:49.307Z,55.43
2023-01-21T20:28:24.269Z,55.78
2023-01-21T20:30:57.175Z,56.08
2023-01-21T20:33:29.889Z,56.37
2023-01-21T20:36:05.354Z,56.52
2023-01-21T20:38:39.703Z,56.88
2023-01-21T20:41:13.833Z,57.11
2023-01-21T20:43:47.284Z,57.14
2023-01-21T20:46:25.298Z,57.38
2023-01-21T20:49:00.556Z,57.38
2023-01-21T20:51:33.126Z,57.45
2023-01-21T20:54:05.546Z,57.69
2023-01-21T20:56:38.600Z,57.67
2023-01-21T20:59:11.797Z,57.66
2023-01-21T21:01:46.760Z,57.84
2023-01-21T21:04:19.464Z,57.69
2023-01-21T21:06:52.507Z,57.74
2023-01-21T21:09:24.857Z,57.74
2023-01-21T21:11:57.280Z,57.62
2023-01-21T21:14:30.353Z,57.43
2023-01-21T21:17:03.143Z,57.68
2023-01-21T21:19:35.250Z,57.57
2023-01-21T21:22:09.096Z,57.89
2023-01-21T21:24:43.213Z,57.87
2023-01-21T21:27:14.964Z,57.73
2023-01-21T21:29:47.181Z,57.59
2023-01-21T21:32:20.363Z,57.57
2023-01-21T21:34:55.238Z,57.59
2023-01-21T21:37:29.127Z,57.73
2023-01-21T21:40:01.936Z,57.62
2023-01-21T21:42:51.711Z,57.50
2023-01-21T21:45:24.729Z,57.34
2023-01-21T21:48:15.335Z,57.71
2023-01-21T21:50:48.725Z,58.06
2023-01-21T21:53:21.279Z,58.37
2023-01-21T21:55:53.710Z,58.51
2023-01-21T21:58:27.805Z,58.46
2023-01-21T22:01:14.172Z,58.81
2023-01-21T22:03:47.583Z,58.90
2023-01-21T22:06:22.910Z,59.04
2023-01-21T22:08:57.732Z,59.02
2023-01-21T22:11:30.804Z,58.98
2023-01-21T22:14:05.983Z,58.67
2023-01-21T22:16:40.284Z,58.84
2023-01-21T22:19:13.316Z,59.00
2023-01-21T22:21:45.868Z,59.20
2023-01-21T22:24:18.292Z,59.25
2023-01-21T22:26:50.723Z,59.48
2023-01-21T22:29:22.860Z,59.41
2023-01-21T22:31:55.141Z,59.58
2023-01-21T22:34:27.551Z,59.71
2023-01-21T22:37:00.095Z,59.63
2023-01-21T22:39:33.659Z,59.54
2023-01-21T22:42:05.664Z,59.54
2023-01-21T22:44:37.824Z,59.65
2023-01-21T22:47:11.428Z,59.51
2023-01-21T22:49:45.555Z,59.51
2023-01-21T22:52:19.219Z,59.70
2023-01-21T22:54:51.746Z,59.73
2023-01-21T22:57:24.182Z,60.05
2023-01-21T22:59:56.548Z,60.20
2023-01-21T23:02:29.115Z,60.06
2023-01-21T23:05:01.271Z,60.05
2023-01-21T23:07:34.335Z,60.09
2023-01-21T23:10:06.874Z,60.07
2023-01-21T23:12:38.994Z,60.33
2023-01-21T23:15:11.330Z,60.43
2023-01-21T23:17:43.914Z,60.49
2023-01-21T23:20:16.862Z,60.67
2023-01-21T23:22:49.911Z,60.69
2023-01-21T23:25:22.553Z,60.62
2023-01-21T23:27:54.683Z,60.74
2023-01-21T23:30:26.803Z,60.86
2023-01-21T23:33:00.434Z,60.93
2023-01-21T23:35:34.326Z,61.18
2023-01-21T23:38:07.113Z,61.27
2023-01-21T23:40:39.620Z,61.52
2023-01-21T23:43:12.117Z,61.48
2023-01-21T23:45:44.611Z,61.59
2023-01-21T23:48:16.857Z,61.92
2023-01-21T23:50:49.119Z,61.80
2023-01-21T23:53:21.242Z,61.91
2023-01-21T23:55:53.992Z,61.95
2023-01-21T23:58:27.144Z,62.13
